Riverside, Iowa
Current Conditions -  °F | °C
As of 2:52 PM on Thursday 18 Dec 2014 (Local Time) from KIOW Reporting Station
Overcast Overcast  
Wind Chill: 21°   Ceiling: 7000
Heat Index: 26°   Visibility: 10mi
Dew Point: 18°   Wind: 5mph
Humidity: 71%   Direction: 290°WNW
Pressure: 30.27"   Gusts: NA
Location:  41.48°N, 91.58°W
Report Text: KIOW 182052Z AUTO 29004KT 10SM OVC070 M03/M08 A3027 RMK AO2 SLP261 T10331078 55010
Loading
Personal Weather Stations






























Interactive Weather Map New forecast layout! Learn more

10-Day Weather Forecast

Advertisements
Track Severe Weather on mobile